CPA418 VHHH-RKSI
Flight info
| Callsign | CPA418 |
|---|---|
| Flight time | 2h 57m |
| Altitude | 39000 |
| Route | DALOL V631 ENVAR M750 ANLOT B1 APU DCT DRAKE Q11 WP900 L4 LIPLO Y741 ATOTI Y722 OLMEN OLMEN2H |
| Aircraft | A333/H-SDE3GHIJ2J3J5M1RVWXY/LB2D1 |
Departure
| Time | 2026-05-07 06:36 |
|---|---|
| Airport | Hong Kong International Airport (VHHH) |
Arrival
| Time | 2026-05-07 09:33 |
|---|---|
| Airport | Incheon International Airport (RKSI) |
| Time | Latitude | Longitude | Altitude | Speed | Heading |
|---|---|---|---|---|---|
| 2026-05-07 05:46 | 22.31607 | 113.93281 | 36 ft | 0 kts | 109° |
| 2026-05-07 06:22 | 22.31611 | 113.93267 | 34 ft | 3 kts | 92° |
| 2026-05-07 06:22 | 22.31613 | 113.93246 | 34 ft | 3 kts | 109° |
| 2026-05-07 06:23 | 22.31621 | 113.93226 | 33 ft | 3 kts | 122° |
| 2026-05-07 06:23 | 22.31633 | 113.93210 | 35 ft | 3 kts | 143° |
| 2026-05-07 06:23 | 22.31650 | 113.93199 | 34 ft | 3 kts | 161° |
| 2026-05-07 06:23 | 22.31668 | 113.93193 | 33 ft | 2 kts | 161° |
| 2026-05-07 06:24 | 22.31687 | 113.93186 | 34 ft | 3 kts | 161° |
| 2026-05-07 06:24 | 22.31697 | 113.93182 | 34 ft | 0 kts | 161° |
| 2026-05-07 06:26 | 22.31686 | 113.93186 | 34 ft | 4 kts | 165° |
| 2026-05-07 06:27 | 22.31648 | 113.93184 | 35 ft | 8 kts | 192° |
| 2026-05-07 06:27 | 22.31602 | 113.93143 | 36 ft | 9 kts | 239° |
| 2026-05-07 06:27 | 22.31577 | 113.93074 | 36 ft | 10 kts | 250° |
| 2026-05-07 06:27 | 22.31552 | 113.92998 | 36 ft | 11 kts | 250° |
| 2026-05-07 06:28 | 22.31554 | 113.92950 | 36 ft | 6 kts | 298° |
| 2026-05-07 06:28 | 22.31591 | 113.92922 | 36 ft | 7 kts | 336° |
| 2026-05-07 06:28 | 22.31657 | 113.92897 | 36 ft | 12 kts | 341° |
| 2026-05-07 06:28 | 22.31750 | 113.92863 | 36 ft | 15 kts | 341° |
| 2026-05-07 06:29 | 22.31842 | 113.92822 | 36 ft | 11 kts | 336° |
| 2026-05-07 06:29 | 22.31861 | 113.92757 | 36 ft | 10 kts | 252° |
| 2026-05-07 06:29 | 22.31833 | 113.92669 | 36 ft | 15 kts | 251° |
| 2026-05-07 06:29 | 22.31793 | 113.92543 | 36 ft | 20 kts | 250° |
| 2026-05-07 06:30 | 22.31745 | 113.92394 | 36 ft | 23 kts | 251° |
| 2026-05-07 06:30 | 22.31691 | 113.92226 | 36 ft | 24 kts | 251° |
| 2026-05-07 06:30 | 22.31634 | 113.92050 | 36 ft | 25 kts | 251° |
| 2026-05-07 06:30 | 22.31575 | 113.91869 | 36 ft | 26 kts | 251° |
| 2026-05-07 06:31 | 22.31516 | 113.91682 | 36 ft | 27 kts | 251° |
| 2026-05-07 06:31 | 22.31454 | 113.91492 | 36 ft | 27 kts | 250° |
| 2026-05-07 06:31 | 22.31390 | 113.91294 | 36 ft | 28 kts | 251° |
| 2026-05-07 06:31 | 22.31325 | 113.91092 | 36 ft | 29 kts | 250° |
| 2026-05-07 06:32 | 22.31259 | 113.90890 | 36 ft | 29 kts | 251° |
| 2026-05-07 06:32 | 22.31193 | 113.90684 | 36 ft | 27 kts | 251° |
| 2026-05-07 06:32 | 22.31132 | 113.90494 | 35 ft | 28 kts | 251° |
| 2026-05-07 06:32 | 22.31069 | 113.90297 | 36 ft | 27 kts | 251° |
| 2026-05-07 06:33 | 22.31011 | 113.90118 | 36 ft | 23 kts | 250° |
| 2026-05-07 06:33 | 22.30966 | 113.89979 | 36 ft | 15 kts | 250° |
| 2026-05-07 06:33 | 22.30933 | 113.89875 | 36 ft | 11 kts | 251° |
| 2026-05-07 06:33 | 22.30951 | 113.89813 | 36 ft | 9 kts | 324° |
| 2026-05-07 06:34 | 22.31018 | 113.89783 | 34 ft | 13 kts | 340° |
| 2026-05-07 06:34 | 22.31068 | 113.89771 | 34 ft | 2 kts | 16° |
| 2026-05-07 06:34 | 22.31084 | 113.89790 | 34 ft | 6 kts | 55° |
| 2026-05-07 06:34 | 22.31099 | 113.89826 | 33 ft | 1 kts | 70° |
| 2026-05-07 06:35 | 22.31104 | 113.89840 | 34 ft | 12 kts | 70° |
| 2026-05-07 06:36 | 22.31205 | 113.90151 | 34 ft | 76 kts | 71° |
| 2026-05-07 06:36 | 22.31446 | 113.90899 | 35 ft | 133 kts | 71° |
| 2026-05-07 06:36 | 22.31816 | 113.92015 | 116 ft | 177 kts | 68° |
| 2026-05-07 06:36 | 22.32243 | 113.93288 | 888 ft | 181 kts | 71° |
| 2026-05-07 06:37 | 22.32680 | 113.94647 | 1352 ft | 205 kts | 74° |
| 2026-05-07 06:37 | 22.33133 | 113.96196 | 1762 ft | 226 kts | 77° |
| 2026-05-07 06:37 | 22.33522 | 113.97880 | 2408 ft | 230 kts | 82° |
| 2026-05-07 06:37 | 22.33806 | 113.99534 | 3279 ft | 226 kts | 81° |
| 2026-05-07 06:38 | 22.34081 | 114.01228 | 4011 ft | 232 kts | 80° |
| 2026-05-07 06:38 | 22.34328 | 114.02969 | 4615 ft | 235 kts | 85° |
| 2026-05-07 06:38 | 22.34233 | 114.04734 | 4910 ft | 237 kts | 104° |
| 2026-05-07 06:38 | 22.33572 | 114.06356 | 4966 ft | 236 kts | 126° |
| 2026-05-07 06:39 | 22.32411 | 114.07604 | 4977 ft | 241 kts | 147° |
| 2026-05-07 06:39 | 22.30878 | 114.08442 | 5095 ft | 252 kts | 165° |
| 2026-05-07 06:39 | 22.29161 | 114.08763 | 5605 ft | 255 kts | 179° |
| 2026-05-07 06:39 | 22.27349 | 114.08786 | 5909 ft | 269 kts | 183° |
| 2026-05-07 06:40 | 22.25435 | 114.08744 | 5970 ft | 276 kts | 184° |
| 2026-05-07 06:40 | 22.23510 | 114.08705 | 5969 ft | 277 kts | 182° |
| 2026-05-07 06:40 | 22.21584 | 114.08673 | 5968 ft | 277 kts | 183° |
| 2026-05-07 06:40 | 22.19656 | 114.08648 | 6040 ft | 277 kts | 182° |
| 2026-05-07 06:41 | 22.17735 | 114.08860 | 6493 ft | 281 kts | 166° |
| 2026-05-07 06:41 | 22.15979 | 114.09801 | 7310 ft | 286 kts | 143° |
| 2026-05-07 06:41 | 22.14692 | 114.11454 | 8133 ft | 292 kts | 123° |
| 2026-05-07 06:41 | 22.13714 | 114.13400 | 8964 ft | 297 kts | 119° |
| 2026-05-07 06:42 | 22.12784 | 114.15411 | 9766 ft | 302 kts | 118° |
| 2026-05-07 06:42 | 22.11833 | 114.17467 | 10320 ft | 314 kts | 118° |
| 2026-05-07 06:42 | 22.10817 | 114.19637 | 10624 ft | 334 kts | 118° |
| 2026-05-07 06:42 | 22.09729 | 114.21940 | 10909 ft | 354 kts | 119° |
| 2026-05-07 06:43 | 22.08593 | 114.24309 | 11335 ft | 365 kts | 121° |
| 2026-05-07 06:43 | 22.07084 | 114.26527 | 11921 ft | 368 kts | 137° |
| 2026-05-07 06:43 | 22.05107 | 114.28313 | 12579 ft | 371 kts | 145° |
| 2026-05-07 06:43 | 22.03011 | 114.29973 | 13227 ft | 376 kts | 146° |
| 2026-05-07 06:44 | 22.00878 | 114.31633 | 13858 ft | 381 kts | 146° |
| 2026-05-07 06:44 | 21.98716 | 114.33318 | 14446 ft | 385 kts | 146° |
| 2026-05-07 06:44 | 21.96567 | 114.35001 | 15041 ft | 388 kts | 146° |
| 2026-05-07 06:44 | 21.94374 | 114.36722 | 15633 ft | 392 kts | 146° |
| 2026-05-07 06:45 | 21.92163 | 114.38460 | 16215 ft | 395 kts | 146° |
| 2026-05-07 06:45 | 21.89930 | 114.40216 | 16803 ft | 399 kts | 146° |
| 2026-05-07 06:45 | 21.87701 | 114.42008 | 17377 ft | 403 kts | 143° |
| 2026-05-07 06:45 | 21.85697 | 114.44157 | 17928 ft | 411 kts | 130° |
| 2026-05-07 06:46 | 21.84227 | 114.46822 | 18435 ft | 418 kts | 114° |
| 2026-05-07 06:46 | 21.83296 | 114.49800 | 18901 ft | 422 kts | 107° |
| 2026-05-07 06:46 | 21.82511 | 114.52863 | 19367 ft | 426 kts | 106° |
| 2026-05-07 06:46 | 21.81740 | 114.55947 | 19829 ft | 429 kts | 106° |
| 2026-05-07 06:47 | 21.80955 | 114.59054 | 20287 ft | 432 kts | 106° |
| 2026-05-07 06:47 | 21.80158 | 114.62177 | 20749 ft | 435 kts | 106° |
| 2026-05-07 06:47 | 21.79349 | 114.65326 | 21214 ft | 437 kts | 106° |
| 2026-05-07 06:47 | 21.78534 | 114.68485 | 21662 ft | 440 kts | 106° |
| 2026-05-07 06:48 | 21.77721 | 114.71627 | 22092 ft | 443 kts | 106° |
| 2026-05-07 06:48 | 21.76890 | 114.74830 | 22528 ft | 446 kts | 106° |
| 2026-05-07 06:48 | 21.76053 | 114.78055 | 22956 ft | 449 kts | 106° |
| 2026-05-07 06:48 | 21.75210 | 114.81306 | 23367 ft | 452 kts | 105° |
| 2026-05-07 06:49 | 21.74545 | 114.84622 | 23733 ft | 455 kts | 97° |
| 2026-05-07 06:49 | 21.74290 | 114.88024 | 24079 ft | 457 kts | 92° |
| 2026-05-07 06:49 | 21.74209 | 114.91453 | 24435 ft | 460 kts | 90° |
| 2026-05-07 06:49 | 21.74216 | 114.94900 | 24792 ft | 462 kts | 89° |
| 2026-05-07 06:50 | 21.74255 | 114.98367 | 25135 ft | 465 kts | 89° |
| 2026-05-07 06:50 | 21.74298 | 115.01853 | 25470 ft | 468 kts | 89° |
| 2026-05-07 06:50 | 21.74329 | 115.05319 | 25832 ft | 470 kts | 89° |
| 2026-05-07 06:50 | 21.74347 | 115.08856 | 26188 ft | 472 kts | 89° |
| 2026-05-07 06:51 | 21.74354 | 115.12404 | 26541 ft | 475 kts | 89° |
| 2026-05-07 06:51 | 21.74353 | 115.15968 | 26888 ft | 478 kts | 89° |
| 2026-05-07 06:51 | 21.74348 | 115.19551 | 27220 ft | 480 kts | 90° |
| 2026-05-07 06:51 | 21.74340 | 115.23152 | 27572 ft | 483 kts | 90° |
| 2026-05-07 06:52 | 21.74332 | 115.26774 | 27917 ft | 485 kts | 90° |
| 2026-05-07 06:52 | 21.74323 | 115.30414 | 28242 ft | 488 kts | 90° |
| 2026-05-07 06:52 | 21.74315 | 115.34065 | 28583 ft | 490 kts | 90° |
| 2026-05-07 06:52 | 21.74305 | 115.37698 | 28911 ft | 493 kts | 90° |
| 2026-05-07 06:53 | 21.74295 | 115.41391 | 29231 ft | 495 kts | 90° |
| 2026-05-07 06:53 | 21.74285 | 115.45111 | 29556 ft | 498 kts | 90° |
| 2026-05-07 06:53 | 21.74273 | 115.48846 | 29869 ft | 500 kts | 90° |
| 2026-05-07 06:53 | 21.74260 | 115.52605 | 30151 ft | 503 kts | 90° |
| 2026-05-07 06:54 | 21.74247 | 115.56385 | 30425 ft | 505 kts | 90° |
| 2026-05-07 06:54 | 21.74233 | 115.60166 | 30700 ft | 507 kts | 89° |
| 2026-05-07 06:54 | 21.74220 | 115.63919 | 30892 ft | 509 kts | 89° |
| 2026-05-07 06:54 | 21.74205 | 115.67729 | 30929 ft | 509 kts | 89° |
| 2026-05-07 06:55 | 21.74174 | 115.75339 | 30930 ft | 508 kts | 90° |
| 2026-05-07 06:55 | 21.74139 | 115.82938 | 30930 ft | 508 kts | 90° |
| 2026-05-07 06:56 | 21.74107 | 115.89259 | 30933 ft | 508 kts | 90° |
| 2026-05-07 06:56 | 21.74066 | 115.96869 | 30933 ft | 508 kts | 90° |
| 2026-05-07 06:57 | 21.74021 | 116.04476 | 30930 ft | 508 kts | 90° |
| 2026-05-07 06:57 | 21.73972 | 116.12074 | 30930 ft | 508 kts | 90° |
| 2026-05-07 06:58 | 21.73921 | 116.19618 | 30930 ft | 508 kts | 90° |
| 2026-05-07 06:58 | 21.73865 | 116.27219 | 30930 ft | 508 kts | 90° |
| 2026-05-07 06:59 | 21.73806 | 116.34810 | 30929 ft | 507 kts | 90° |
| 2026-05-07 06:59 | 21.73744 | 116.42400 | 30929 ft | 507 kts | 90° |
| 2026-05-07 07:00 | 21.73678 | 116.49984 | 30932 ft | 507 kts | 90° |
| 2026-05-07 07:00 | 21.73609 | 116.57534 | 30933 ft | 507 kts | 90° |
| 2026-05-07 07:01 | 21.73537 | 116.65122 | 30927 ft | 507 kts | 90° |
| 2026-05-07 07:01 | 21.73461 | 116.72718 | 30927 ft | 507 kts | 90° |
| 2026-05-07 07:02 | 21.74250 | 116.80219 | 30926 ft | 505 kts | 73° |
| 2026-05-07 07:02 | 21.76529 | 116.87365 | 30928 ft | 505 kts | 68° |
| 2026-05-07 07:03 | 21.79092 | 116.94407 | 30928 ft | 505 kts | 66° |
| 2026-05-07 07:03 | 21.81670 | 117.01383 | 30925 ft | 505 kts | 67° |
| 2026-05-07 07:04 | 21.84238 | 117.08424 | 30925 ft | 505 kts | 67° |
| 2026-05-07 07:04 | 21.86783 | 117.15473 | 30925 ft | 505 kts | 67° |
| 2026-05-07 07:05 | 21.89317 | 117.22519 | 30924 ft | 504 kts | 67° |
| 2026-05-07 07:05 | 21.91842 | 117.29551 | 30925 ft | 503 kts | 67° |
| 2026-05-07 07:06 | 21.94370 | 117.36596 | 31199 ft | 507 kts | 67° |
| 2026-05-07 07:06 | 21.95648 | 117.40160 | 31475 ft | 509 kts | 67° |
| 2026-05-07 07:06 | 21.96904 | 117.43667 | 31856 ft | 508 kts | 67° |
| 2026-05-07 07:07 | 21.98170 | 117.47202 | 32319 ft | 505 kts | 66° |
| 2026-05-07 07:07 | 21.99681 | 117.50642 | 32793 ft | 499 kts | 58° |
| 2026-05-07 07:07 | 22.01368 | 117.53844 | 33240 ft | 496 kts | 57° |
| 2026-05-07 07:07 | 22.03126 | 117.57039 | 33659 ft | 494 kts | 56° |
| 2026-05-07 07:08 | 22.04909 | 117.60199 | 34036 ft | 493 kts | 55° |
| 2026-05-07 07:08 | 22.06706 | 117.63346 | 34352 ft | 492 kts | 55° |
| 2026-05-07 07:08 | 22.08504 | 117.66486 | 34672 ft | 491 kts | 55° |
| 2026-05-07 07:08 | 22.10297 | 117.69622 | 35003 ft | 490 kts | 55° |
| 2026-05-07 07:09 | 22.12080 | 117.72751 | 35322 ft | 489 kts | 55° |
| 2026-05-07 07:09 | 22.13859 | 117.75882 | 35652 ft | 488 kts | 55° |
| 2026-05-07 07:09 | 22.15628 | 117.79004 | 35964 ft | 488 kts | 55° |
| 2026-05-07 07:09 | 22.17400 | 117.82134 | 36232 ft | 488 kts | 55° |
| 2026-05-07 07:10 | 22.19170 | 117.85266 | 36522 ft | 488 kts | 55° |
| 2026-05-07 07:10 | 22.20939 | 117.88398 | 36813 ft | 487 kts | 55° |
| 2026-05-07 07:10 | 22.22675 | 117.91473 | 37105 ft | 486 kts | 55° |
| 2026-05-07 07:10 | 22.24434 | 117.94591 | 37395 ft | 485 kts | 55° |
| 2026-05-07 07:11 | 22.26190 | 117.97704 | 37700 ft | 484 kts | 54° |
| 2026-05-07 07:11 | 22.27950 | 118.00816 | 37982 ft | 484 kts | 54° |
| 2026-05-07 07:11 | 22.29731 | 118.03906 | 38244 ft | 483 kts | 54° |
| 2026-05-07 07:11 | 22.31518 | 118.06972 | 38507 ft | 482 kts | 53° |
| 2026-05-07 07:12 | 22.33288 | 118.09995 | 38750 ft | 481 kts | 53° |
| 2026-05-07 07:12 | 22.35078 | 118.13049 | 38897 ft | 482 kts | 53° |
| 2026-05-07 07:12 | 22.38657 | 118.19172 | 38932 ft | 481 kts | 53° |
| 2026-05-07 07:13 | 22.42202 | 118.25318 | 38939 ft | 481 kts | 54° |
| 2026-05-07 07:13 | 22.43959 | 118.28415 | 39088 ft | 482 kts | 54° |
| 2026-05-07 07:13 | 22.45706 | 118.31509 | 39306 ft | 481 kts | 54° |
| 2026-05-07 07:14 | 22.47425 | 118.34556 | 39522 ft | 480 kts | 54° |
| 2026-05-07 07:14 | 22.49168 | 118.37645 | 39725 ft | 480 kts | 54° |
| 2026-05-07 07:14 | 22.50903 | 118.40720 | 39937 ft | 479 kts | 54° |
| 2026-05-07 07:14 | 22.52644 | 118.43803 | 40126 ft | 478 kts | 54° |
| 2026-05-07 07:15 | 22.54377 | 118.46871 | 40314 ft | 478 kts | 54° |
| 2026-05-07 07:15 | 22.56113 | 118.49945 | 40506 ft | 477 kts | 54° |
| 2026-05-07 07:15 | 22.57846 | 118.53006 | 40677 ft | 477 kts | 54° |
| 2026-05-07 07:15 | 22.59583 | 118.56060 | 40837 ft | 476 kts | 54° |
| 2026-05-07 07:16 | 22.63062 | 118.62157 | 40928 ft | 480 kts | 54° |
| 2026-05-07 07:16 | 22.66573 | 118.68319 | 40925 ft | 479 kts | 54° |
| 2026-05-07 07:17 | 22.70062 | 118.74457 | 40925 ft | 478 kts | 54° |
| 2026-05-07 07:17 | 22.73551 | 118.80604 | 40925 ft | 478 kts | 54° |
| 2026-05-07 07:18 | 22.77015 | 118.86713 | 40925 ft | 478 kts | 54° |
| 2026-05-07 07:18 | 22.80500 | 118.92867 | 40929 ft | 478 kts | 54° |
| 2026-05-07 07:19 | 22.83977 | 118.99014 | 40925 ft | 478 kts | 54° |
| 2026-05-07 07:19 | 22.87453 | 119.05167 | 40922 ft | 478 kts | 55° |
| 2026-05-07 07:20 | 22.90909 | 119.11290 | 40925 ft | 478 kts | 55° |
| 2026-05-07 07:20 | 22.94377 | 119.17445 | 40925 ft | 478 kts | 55° |
| 2026-05-07 07:21 | 22.97843 | 119.23601 | 40922 ft | 478 kts | 55° |
| 2026-05-07 07:21 | 23.01287 | 119.29725 | 40926 ft | 478 kts | 55° |
| 2026-05-07 07:22 | 23.04749 | 119.35890 | 40916 ft | 478 kts | 55° |
| 2026-05-07 07:22 | 23.08211 | 119.42063 | 40923 ft | 478 kts | 55° |
| 2026-05-07 07:23 | 23.11649 | 119.48198 | 40914 ft | 478 kts | 55° |
| 2026-05-07 07:23 | 23.15104 | 119.54374 | 40919 ft | 478 kts | 55° |
| 2026-05-07 07:24 | 23.18555 | 119.60547 | 40908 ft | 478 kts | 55° |
| 2026-05-07 07:24 | 23.22006 | 119.66724 | 40915 ft | 478 kts | 54° |
| 2026-05-07 07:25 | 23.27196 | 119.76023 | 40912 ft | 480 kts | 54° |
| 2026-05-07 07:26 | 23.30657 | 119.82238 | 40911 ft | 480 kts | 54° |
| 2026-05-07 07:26 | 23.34116 | 119.88457 | 40912 ft | 480 kts | 54° |
| 2026-05-07 07:27 | 23.38098 | 119.94135 | 40914 ft | 472 kts | 41° |
| 2026-05-07 07:27 | 23.42755 | 119.99161 | 40926 ft | 471 kts | 39° |
| 2026-05-07 07:28 | 23.47533 | 120.04058 | 40916 ft | 472 kts | 38° |
| 2026-05-07 07:28 | 23.52337 | 120.08960 | 40919 ft | 472 kts | 38° |
| 2026-05-07 07:29 | 23.57092 | 120.13845 | 40919 ft | 472 kts | 38° |
| 2026-05-07 07:29 | 23.61858 | 120.18765 | 40922 ft | 472 kts | 39° |
| 2026-05-07 07:30 | 23.66625 | 120.23696 | 40924 ft | 472 kts | 38° |
| 2026-05-07 07:30 | 23.71380 | 120.28619 | 40928 ft | 473 kts | 38° |
| 2026-05-07 07:31 | 23.76159 | 120.33570 | 40925 ft | 473 kts | 38° |
| 2026-05-07 07:31 | 23.80930 | 120.38518 | 40924 ft | 473 kts | 38° |
| 2026-05-07 07:32 | 23.85697 | 120.43467 | 40927 ft | 473 kts | 38° |
| 2026-05-07 07:32 | 23.90510 | 120.48357 | 40929 ft | 469 kts | 33° |
| 2026-05-07 07:33 | 23.95669 | 120.52700 | 40930 ft | 467 kts | 31° |
| 2026-05-07 07:33 | 24.00870 | 120.56908 | 40934 ft | 467 kts | 31° |
| 2026-05-07 07:34 | 24.06109 | 120.61114 | 40936 ft | 467 kts | 31° |
| 2026-05-07 07:34 | 24.11341 | 120.65327 | 40950 ft | 467 kts | 31° |
| 2026-05-07 07:35 | 24.16569 | 120.69554 | 40933 ft | 467 kts | 31° |
| 2026-05-07 07:35 | 24.21802 | 120.73790 | 40944 ft | 467 kts | 31° |
| 2026-05-07 07:36 | 24.26998 | 120.78002 | 40949 ft | 467 kts | 31° |
| 2026-05-07 07:36 | 24.32220 | 120.82238 | 40952 ft | 467 kts | 31° |
| 2026-05-07 07:37 | 24.37415 | 120.86458 | 40951 ft | 467 kts | 30° |
| 2026-05-07 07:37 | 24.42638 | 120.90704 | 40952 ft | 467 kts | 30° |
| 2026-05-07 07:38 | 24.47865 | 120.94959 | 40943 ft | 467 kts | 30° |
| 2026-05-07 07:38 | 24.53083 | 120.99210 | 40959 ft | 467 kts | 31° |
| 2026-05-07 07:39 | 24.58260 | 121.03431 | 40952 ft | 467 kts | 30° |
| 2026-05-07 07:39 | 24.63474 | 121.07692 | 40954 ft | 466 kts | 30° |
| 2026-05-07 07:40 | 24.68693 | 121.11957 | 40957 ft | 466 kts | 30° |
| 2026-05-07 07:40 | 24.73900 | 121.16216 | 40953 ft | 466 kts | 30° |
| 2026-05-07 07:41 | 24.79086 | 121.20462 | 40938 ft | 466 kts | 30° |
| 2026-05-07 07:41 | 24.84294 | 121.24732 | 40919 ft | 466 kts | 31° |
| 2026-05-07 07:42 | 24.89496 | 121.29005 | 40922 ft | 466 kts | 31° |
| 2026-05-07 07:42 | 24.94697 | 121.33278 | 40916 ft | 466 kts | 30° |
| 2026-05-07 07:43 | 24.99870 | 121.37532 | 40913 ft | 467 kts | 31° |
| 2026-05-07 07:43 | 25.05083 | 121.41825 | 40888 ft | 467 kts | 30° |
| 2026-05-07 07:44 | 25.10298 | 121.46124 | 40882 ft | 468 kts | 30° |
| 2026-05-07 07:44 | 25.15515 | 121.50435 | 40883 ft | 469 kts | 32° |
| 2026-05-07 07:45 | 25.20242 | 121.55453 | 40880 ft | 477 kts | 41° |
| 2026-05-07 07:45 | 25.23931 | 121.60001 | 40904 ft | 477 kts | 43° |
| 2026-05-07 07:46 | 25.28296 | 121.65546 | 40888 ft | 479 kts | 43° |
| 2026-05-07 07:46 | 25.32676 | 121.71122 | 40889 ft | 480 kts | 43° |
| 2026-05-07 07:47 | 25.37064 | 121.76691 | 40898 ft | 480 kts | 43° |
| 2026-05-07 07:47 | 25.41465 | 121.82268 | 40899 ft | 480 kts | 43° |
| 2026-05-07 07:48 | 25.45832 | 121.87805 | 40918 ft | 480 kts | 43° |
| 2026-05-07 07:48 | 25.50222 | 121.93379 | 40908 ft | 481 kts | 43° |
| 2026-05-07 07:49 | 25.54617 | 121.98968 | 40921 ft | 481 kts | 43° |
| 2026-05-07 07:49 | 25.59007 | 122.04557 | 40924 ft | 481 kts | 43° |
| 2026-05-07 07:50 | 25.63860 | 122.09506 | 40927 ft | 470 kts | 31° |
| 2026-05-07 07:50 | 25.69138 | 122.13774 | 40923 ft | 469 kts | 28° |
| 2026-05-07 07:51 | 25.74455 | 122.17888 | 40925 ft | 469 kts | 28° |
| 2026-05-07 07:51 | 25.79814 | 122.22024 | 40920 ft | 469 kts | 28° |
| 2026-05-07 07:52 | 25.85168 | 122.26183 | 40929 ft | 469 kts | 28° |
| 2026-05-07 07:52 | 25.90511 | 122.30353 | 40925 ft | 470 kts | 28° |
| 2026-05-07 07:53 | 25.95863 | 122.34538 | 40925 ft | 470 kts | 28° |
| 2026-05-07 07:53 | 26.01211 | 122.38724 | 40924 ft | 470 kts | 28° |
| 2026-05-07 07:54 | 26.06569 | 122.42922 | 40923 ft | 470 kts | 28° |
| 2026-05-07 07:54 | 26.11913 | 122.47113 | 40926 ft | 470 kts | 28° |
| 2026-05-07 07:55 | 26.17240 | 122.51296 | 40923 ft | 470 kts | 28° |
| 2026-05-07 07:55 | 26.22582 | 122.55500 | 40925 ft | 471 kts | 28° |
| 2026-05-07 07:56 | 26.27933 | 122.59719 | 40925 ft | 471 kts | 28° |
| 2026-05-07 07:56 | 26.33277 | 122.63938 | 40926 ft | 471 kts | 28° |
| 2026-05-07 07:57 | 26.38597 | 122.68140 | 40927 ft | 471 kts | 28° |
| 2026-05-07 07:57 | 26.43950 | 122.72375 | 40927 ft | 471 kts | 28° |
| 2026-05-07 07:58 | 26.49309 | 122.76619 | 40923 ft | 471 kts | 28° |
| 2026-05-07 07:58 | 26.54657 | 122.80860 | 40923 ft | 472 kts | 28° |
| 2026-05-07 07:59 | 26.59982 | 122.85077 | 40923 ft | 472 kts | 28° |
| 2026-05-07 07:59 | 26.65346 | 122.89324 | 40923 ft | 472 kts | 28° |
| 2026-05-07 08:00 | 26.70705 | 122.93573 | 40932 ft | 472 kts | 28° |
| 2026-05-07 08:00 | 26.76065 | 122.97829 | 40934 ft | 472 kts | 27° |
| 2026-05-07 08:01 | 26.81433 | 123.02100 | 40933 ft | 473 kts | 27° |
| 2026-05-07 08:01 | 26.85087 | 123.05016 | 40930 ft | 473 kts | 28° |
| 2026-05-07 08:02 | 26.88660 | 123.07877 | 40927 ft | 464 kts | 27° |
| 2026-05-07 08:02 | 26.92840 | 123.11220 | 40935 ft | 468 kts | 27° |
| 2026-05-07 08:03 | 26.98187 | 123.15489 | 40933 ft | 473 kts | 28° |
| 2026-05-07 08:03 | 27.03549 | 123.19784 | 40933 ft | 473 kts | 28° |
| 2026-05-07 08:04 | 27.08880 | 123.24065 | 40936 ft | 473 kts | 28° |
| 2026-05-07 08:04 | 27.14232 | 123.28364 | 40938 ft | 473 kts | 28° |
| 2026-05-07 08:05 | 27.19595 | 123.32676 | 40936 ft | 474 kts | 27° |
| 2026-05-07 08:05 | 27.24980 | 123.37010 | 40939 ft | 475 kts | 27° |
| 2026-05-07 08:06 | 27.30326 | 123.41320 | 40938 ft | 475 kts | 28° |
| 2026-05-07 08:06 | 27.35698 | 123.45657 | 40953 ft | 475 kts | 27° |
| 2026-05-07 08:07 | 27.41080 | 123.50005 | 40940 ft | 476 kts | 27° |
| 2026-05-07 08:07 | 27.46469 | 123.54365 | 40941 ft | 477 kts | 27° |
| 2026-05-07 08:08 | 27.51854 | 123.58728 | 40943 ft | 477 kts | 28° |
| 2026-05-07 08:08 | 27.57243 | 123.63100 | 40959 ft | 477 kts | 27° |
| 2026-05-07 08:09 | 27.62595 | 123.67476 | 40948 ft | 479 kts | 29° |
| 2026-05-07 08:09 | 27.67892 | 123.72099 | 40946 ft | 481 kts | 30° |
| 2026-05-07 08:10 | 27.73143 | 123.76801 | 40949 ft | 481 kts | 30° |
| 2026-05-07 08:10 | 27.78395 | 123.81496 | 40952 ft | 482 kts | 30° |
| 2026-05-07 08:11 | 27.83664 | 123.86184 | 40948 ft | 483 kts | 30° |
| 2026-05-07 08:11 | 27.88948 | 123.90881 | 40949 ft | 483 kts | 30° |
| 2026-05-07 08:12 | 27.94225 | 123.95579 | 40946 ft | 483 kts | 30° |
| 2026-05-07 08:12 | 27.99477 | 124.00260 | 40951 ft | 484 kts | 30° |
| 2026-05-07 08:13 | 28.04774 | 124.04989 | 40948 ft | 485 kts | 30° |
| 2026-05-07 08:13 | 28.10075 | 124.09730 | 40949 ft | 485 kts | 30° |
| 2026-05-07 08:14 | 28.15368 | 124.14469 | 40950 ft | 485 kts | 30° |
| 2026-05-07 08:14 | 28.20668 | 124.19219 | 40951 ft | 486 kts | 30° |
| 2026-05-07 08:15 | 28.25946 | 124.23955 | 40946 ft | 487 kts | 30° |
| 2026-05-07 08:15 | 28.31256 | 124.28728 | 40956 ft | 486 kts | 30° |
| 2026-05-07 08:16 | 28.36555 | 124.33497 | 40961 ft | 486 kts | 30° |
| 2026-05-07 08:16 | 28.41864 | 124.38279 | 40947 ft | 487 kts | 30° |
| 2026-05-07 08:17 | 28.47187 | 124.43081 | 40952 ft | 488 kts | 30° |
| 2026-05-07 08:17 | 28.52503 | 124.47884 | 40943 ft | 488 kts | 31° |
| 2026-05-07 08:18 | 28.57811 | 124.52687 | 40949 ft | 488 kts | 31° |
| 2026-05-07 08:18 | 28.63095 | 124.57473 | 40949 ft | 488 kts | 31° |
| 2026-05-07 08:19 | 28.68406 | 124.62290 | 40956 ft | 488 kts | 31° |
| 2026-05-07 08:19 | 28.73714 | 124.67110 | 40962 ft | 488 kts | 31° |
| 2026-05-07 08:20 | 28.79413 | 124.71028 | 40953 ft | 470 kts | 14° |
| 2026-05-07 08:20 | 28.85510 | 124.73703 | 40953 ft | 467 kts | 12° |
| 2026-05-07 08:21 | 28.91643 | 124.76132 | 40954 ft | 466 kts | 11° |
| 2026-05-07 08:21 | 28.97785 | 124.78532 | 40952 ft | 466 kts | 11° |
| 2026-05-07 08:22 | 29.03879 | 124.80940 | 40954 ft | 467 kts | 11° |
| 2026-05-07 08:22 | 29.10018 | 124.83389 | 40955 ft | 467 kts | 11° |
| 2026-05-07 08:23 | 29.16155 | 124.85844 | 40970 ft | 467 kts | 11° |
| 2026-05-07 08:23 | 29.22293 | 124.88303 | 40958 ft | 468 kts | 11° |
| 2026-05-07 08:24 | 29.28401 | 124.90752 | 40958 ft | 468 kts | 11° |
| 2026-05-07 08:24 | 29.34551 | 124.93221 | 40955 ft | 468 kts | 11° |
| 2026-05-07 08:25 | 29.40699 | 124.95693 | 40967 ft | 469 kts | 11° |
| 2026-05-07 08:25 | 29.46859 | 124.98171 | 40960 ft | 469 kts | 11° |
| 2026-05-07 08:26 | 29.56102 | 125.01897 | 40953 ft | 469 kts | 11° |
| 2026-05-07 08:26 | 29.62266 | 125.04387 | 40954 ft | 469 kts | 11° |
| 2026-05-07 08:27 | 29.68424 | 125.06877 | 40961 ft | 469 kts | 11° |
| 2026-05-07 08:27 | 29.74543 | 125.09355 | 40952 ft | 469 kts | 11° |
| 2026-05-07 08:28 | 29.80707 | 125.11854 | 40971 ft | 470 kts | 11° |
| 2026-05-07 08:28 | 29.86887 | 125.14362 | 40958 ft | 471 kts | 11° |
| 2026-05-07 08:29 | 29.93075 | 125.16878 | 40960 ft | 471 kts | 11° |
| 2026-05-07 08:29 | 29.99266 | 125.19399 | 40960 ft | 471 kts | 11° |
| 2026-05-07 08:30 | 30.05453 | 125.21925 | 40957 ft | 472 kts | 12° |
| 2026-05-07 08:30 | 30.11611 | 125.24445 | 40958 ft | 472 kts | 12° |
| 2026-05-07 08:31 | 30.17809 | 125.26985 | 40961 ft | 472 kts | 12° |
| 2026-05-07 08:31 | 30.24005 | 125.29528 | 40964 ft | 472 kts | 12° |
| 2026-05-07 08:32 | 30.30197 | 125.32072 | 40960 ft | 472 kts | 12° |
| 2026-05-07 08:32 | 30.36393 | 125.34621 | 40957 ft | 472 kts | 12° |
| 2026-05-07 08:33 | 30.42592 | 125.37175 | 40977 ft | 472 kts | 12° |
| 2026-05-07 08:33 | 30.47754 | 125.39303 | 40960 ft | 472 kts | 12° |
| 2026-05-07 08:34 | 30.53909 | 125.41844 | 40958 ft | 472 kts | 12° |
| 2026-05-07 08:34 | 30.60108 | 125.44406 | 40957 ft | 472 kts | 12° |
| 2026-05-07 08:35 | 30.66305 | 125.46971 | 40960 ft | 472 kts | 12° |
| 2026-05-07 08:35 | 30.72501 | 125.49539 | 40957 ft | 472 kts | 12° |
| 2026-05-07 08:36 | 30.78652 | 125.52092 | 40960 ft | 472 kts | 12° |
| 2026-05-07 08:36 | 30.84848 | 125.54667 | 40968 ft | 472 kts | 12° |
| 2026-05-07 08:37 | 30.91044 | 125.57247 | 40960 ft | 472 kts | 12° |
| 2026-05-07 08:37 | 30.97243 | 125.59830 | 40962 ft | 472 kts | 12° |
| 2026-05-07 08:38 | 31.03430 | 125.62412 | 40960 ft | 472 kts | 12° |
| 2026-05-07 08:38 | 31.09584 | 125.64984 | 40960 ft | 472 kts | 12° |
| 2026-05-07 08:39 | 31.15778 | 125.67577 | 40960 ft | 473 kts | 12° |
| 2026-05-07 08:39 | 31.21983 | 125.70178 | 40961 ft | 473 kts | 12° |
| 2026-05-07 08:40 | 31.28177 | 125.72778 | 40966 ft | 473 kts | 12° |
| 2026-05-07 08:40 | 31.34333 | 125.75366 | 40959 ft | 473 kts | 12° |
| 2026-05-07 08:41 | 31.40536 | 125.77977 | 40963 ft | 473 kts | 12° |
| 2026-05-07 08:41 | 31.46735 | 125.80590 | 40960 ft | 473 kts | 12° |
| 2026-05-07 08:42 | 31.52935 | 125.83207 | 40960 ft | 473 kts | 12° |
| 2026-05-07 08:42 | 31.59136 | 125.85829 | 40960 ft | 473 kts | 12° |
| 2026-05-07 08:43 | 31.65311 | 125.88428 | 40963 ft | 473 kts | 12° |
| 2026-05-07 08:43 | 31.71521 | 125.91037 | 40960 ft | 474 kts | 12° |
| 2026-05-07 08:44 | 31.77729 | 125.93651 | 40963 ft | 474 kts | 12° |
| 2026-05-07 08:44 | 31.83944 | 125.96273 | 40977 ft | 475 kts | 12° |
| 2026-05-07 08:45 | 31.90129 | 125.98886 | 40960 ft | 475 kts | 12° |
| 2026-05-07 08:45 | 31.96354 | 126.01521 | 40960 ft | 475 kts | 12° |
| 2026-05-07 08:46 | 32.02574 | 126.04158 | 40977 ft | 475 kts | 12° |
| 2026-05-07 08:46 | 32.08809 | 126.06803 | 40959 ft | 476 kts | 12° |
| 2026-05-07 08:47 | 32.15045 | 126.09445 | 40962 ft | 476 kts | 12° |
| 2026-05-07 08:47 | 32.21283 | 126.12090 | 40961 ft | 476 kts | 12° |
| 2026-05-07 08:48 | 32.27522 | 126.14741 | 40962 ft | 477 kts | 12° |
| 2026-05-07 08:48 | 32.33730 | 126.17382 | 40959 ft | 477 kts | 12° |
| 2026-05-07 08:49 | 32.39979 | 126.20046 | 40959 ft | 477 kts | 12° |
| 2026-05-07 08:49 | 32.46233 | 126.22715 | 40961 ft | 477 kts | 12° |
| 2026-05-07 08:50 | 32.52494 | 126.25391 | 40946 ft | 478 kts | 12° |
| 2026-05-07 08:50 | 32.58750 | 126.28071 | 40957 ft | 477 kts | 12° |
| 2026-05-07 08:51 | 32.64960 | 126.30737 | 40956 ft | 478 kts | 13° |
| 2026-05-07 08:51 | 32.71218 | 126.33427 | 40954 ft | 479 kts | 13° |
| 2026-05-07 08:52 | 32.77481 | 126.36123 | 40954 ft | 479 kts | 13° |
| 2026-05-07 08:52 | 32.83756 | 126.38828 | 40959 ft | 479 kts | 13° |
| 2026-05-07 08:53 | 32.89994 | 126.41521 | 40956 ft | 479 kts | 13° |
| 2026-05-07 08:53 | 32.96270 | 126.44235 | 40955 ft | 479 kts | 13° |
| 2026-05-07 08:54 | 33.02543 | 126.46947 | 40958 ft | 479 kts | 13° |
| 2026-05-07 08:54 | 33.08817 | 126.49643 | 40958 ft | 479 kts | 12° |
| 2026-05-07 08:55 | 33.15085 | 126.52336 | 40952 ft | 479 kts | 13° |
| 2026-05-07 08:55 | 33.21364 | 126.55040 | 40950 ft | 480 kts | 13° |
| 2026-05-07 08:56 | 33.27612 | 126.57736 | 40952 ft | 480 kts | 13° |
| 2026-05-07 08:56 | 33.33900 | 126.60454 | 40948 ft | 480 kts | 13° |
| 2026-05-07 08:57 | 33.40187 | 126.63179 | 40951 ft | 481 kts | 13° |
| 2026-05-07 08:57 | 33.46479 | 126.65919 | 40950 ft | 481 kts | 13° |
| 2026-05-07 08:58 | 33.52775 | 126.68650 | 40941 ft | 479 kts | 10° |
| 2026-05-07 08:58 | 33.59160 | 126.70176 | 40947 ft | 466 kts | 359° |
| 2026-05-07 08:59 | 33.65622 | 126.70970 | 40947 ft | 465 kts | 357° |
| 2026-05-07 08:59 | 33.72073 | 126.71621 | 40947 ft | 465 kts | 357° |
| 2026-05-07 09:00 | 33.78525 | 126.72269 | 40954 ft | 466 kts | 357° |
| 2026-05-07 09:00 | 33.84946 | 126.72935 | 40950 ft | 466 kts | 357° |
| 2026-05-07 09:01 | 33.91417 | 126.73617 | 40947 ft | 466 kts | 357° |
| 2026-05-07 09:01 | 33.97892 | 126.74295 | 40945 ft | 467 kts | 357° |
| 2026-05-07 09:02 | 34.04369 | 126.74970 | 40938 ft | 467 kts | 357° |
| 2026-05-07 09:02 | 34.10861 | 126.75649 | 40941 ft | 468 kts | 357° |
| 2026-05-07 09:03 | 34.17306 | 126.76327 | 40955 ft | 468 kts | 357° |
| 2026-05-07 09:03 | 34.23810 | 126.77009 | 40943 ft | 470 kts | 357° |
| 2026-05-07 09:04 | 34.30328 | 126.77698 | 40940 ft | 473 kts | 357° |
| 2026-05-07 09:04 | 34.36952 | 126.78396 | 40949 ft | 482 kts | 357° |
| 2026-05-07 09:05 | 34.43702 | 126.79111 | 40940 ft | 490 kts | 358° |
| 2026-05-07 09:05 | 34.50506 | 126.79842 | 40939 ft | 490 kts | 358° |
| 2026-05-07 09:06 | 34.57304 | 126.80574 | 40945 ft | 490 kts | 357° |
| 2026-05-07 09:06 | 34.64069 | 126.81298 | 40939 ft | 492 kts | 357° |
| 2026-05-07 09:07 | 34.70888 | 126.82028 | 40938 ft | 492 kts | 357° |
| 2026-05-07 09:07 | 34.77719 | 126.82762 | 40940 ft | 492 kts | 357° |
| 2026-05-07 09:08 | 34.84542 | 126.83494 | 40940 ft | 492 kts | 357° |
| 2026-05-07 09:08 | 34.91364 | 126.84226 | 40932 ft | 492 kts | 357° |
| 2026-05-07 09:09 | 34.98188 | 126.84966 | 40934 ft | 492 kts | 357° |
| 2026-05-07 09:09 | 35.05002 | 126.85704 | 40936 ft | 491 kts | 357° |
| 2026-05-07 09:10 | 35.11778 | 126.86438 | 40936 ft | 492 kts | 357° |
| 2026-05-07 09:10 | 35.18610 | 126.87177 | 40939 ft | 493 kts | 357° |
| 2026-05-07 09:11 | 35.25448 | 126.87919 | 40939 ft | 493 kts | 357° |
| 2026-05-07 09:11 | 35.32287 | 126.88662 | 40940 ft | 493 kts | 357° |
| 2026-05-07 09:12 | 35.39137 | 126.89408 | 40940 ft | 494 kts | 357° |
| 2026-05-07 09:12 | 35.45960 | 126.90152 | 40937 ft | 495 kts | 357° |
| 2026-05-07 09:13 | 35.52820 | 126.90903 | 40787 ft | 493 kts | 357° |
| 2026-05-07 09:13 | 35.56241 | 126.91277 | 40576 ft | 495 kts | 356° |
| 2026-05-07 09:13 | 35.59690 | 126.91650 | 40333 ft | 499 kts | 356° |
| 2026-05-07 09:14 | 35.63152 | 126.92026 | 40088 ft | 500 kts | 356° |
| 2026-05-07 09:14 | 35.66636 | 126.92406 | 39844 ft | 502 kts | 356° |
| 2026-05-07 09:14 | 35.70115 | 126.92787 | 39608 ft | 503 kts | 356° |
| 2026-05-07 09:14 | 35.73603 | 126.93171 | 39395 ft | 504 kts | 356° |
| 2026-05-07 09:15 | 35.77060 | 126.93551 | 39165 ft | 505 kts | 356° |
| 2026-05-07 09:15 | 35.80571 | 126.93937 | 38931 ft | 507 kts | 356° |
| 2026-05-07 09:15 | 35.84086 | 126.94323 | 38704 ft | 508 kts | 356° |
| 2026-05-07 09:15 | 35.87612 | 126.94712 | 38450 ft | 509 kts | 356° |
| 2026-05-07 09:16 | 35.91142 | 126.95101 | 38178 ft | 510 kts | 356° |
| 2026-05-07 09:16 | 35.94678 | 126.95492 | 37946 ft | 511 kts | 356° |
| 2026-05-07 09:16 | 35.98226 | 126.95883 | 37681 ft | 513 kts | 356° |
| 2026-05-07 09:16 | 36.01791 | 126.96277 | 37410 ft | 514 kts | 356° |
| 2026-05-07 09:17 | 36.05366 | 126.96673 | 37139 ft | 515 kts | 356° |
| 2026-05-07 09:17 | 36.08933 | 126.97069 | 36849 ft | 515 kts | 356° |
| 2026-05-07 09:17 | 36.12505 | 126.97467 | 36318 ft | 515 kts | 356° |
| 2026-05-07 09:17 | 36.16083 | 126.97865 | 35555 ft | 517 kts | 356° |
| 2026-05-07 09:18 | 36.19676 | 126.98262 | 34754 ft | 520 kts | 356° |
| 2026-05-07 09:18 | 36.23294 | 126.98662 | 33970 ft | 522 kts | 356° |
| 2026-05-07 09:18 | 36.26918 | 126.99064 | 33095 ft | 524 kts | 356° |
| 2026-05-07 09:18 | 36.30548 | 126.99465 | 32251 ft | 524 kts | 356° |
| 2026-05-07 09:19 | 36.34143 | 126.99866 | 31426 ft | 526 kts | 356° |
| 2026-05-07 09:19 | 36.37800 | 127.00219 | 30562 ft | 524 kts | 352° |
| 2026-05-07 09:19 | 36.41430 | 127.00273 | 29845 ft | 517 kts | 351° |
| 2026-05-07 09:19 | 36.44965 | 127.00234 | 29297 ft | 500 kts | 349° |
| 2026-05-07 09:20 | 36.48438 | 127.00131 | 28511 ft | 497 kts | 348° |
| 2026-05-07 09:20 | 36.51876 | 126.99988 | 27893 ft | 493 kts | 348° |
| 2026-05-07 09:20 | 36.55299 | 126.99834 | 27267 ft | 488 kts | 348° |
| 2026-05-07 09:20 | 36.57538 | 126.99736 | 26835 ft | 486 kts | 348° |
| 2026-05-07 09:21 | 36.62029 | 126.99555 | 26036 ft | 479 kts | 348° |
| 2026-05-07 09:21 | 36.64233 | 126.99472 | 25658 ft | 476 kts | 349° |
| 2026-05-07 09:21 | 36.68634 | 126.99307 | 24805 ft | 472 kts | 349° |
| 2026-05-07 09:21 | 36.71865 | 126.99172 | 24268 ft | 466 kts | 347° |
| 2026-05-07 09:22 | 36.74932 | 126.98407 | 23837 ft | 437 kts | 330° |
| 2026-05-07 09:22 | 36.77653 | 126.96899 | 23210 ft | 424 kts | 324° |
| 2026-05-07 09:22 | 36.79385 | 126.95789 | 22697 ft | 421 kts | 323° |
| 2026-05-07 09:22 | 36.81978 | 126.94102 | 22021 ft | 417 kts | 323° |
| 2026-05-07 09:23 | 36.84537 | 126.92457 | 21020 ft | 409 kts | 324° |
| 2026-05-07 09:23 | 36.87086 | 126.90834 | 19928 ft | 411 kts | 324° |
| 2026-05-07 09:23 | 36.89620 | 126.89235 | 19441 ft | 404 kts | 324° |
| 2026-05-07 09:23 | 36.92111 | 126.87673 | 18626 ft | 396 kts | 325° |
| 2026-05-07 09:24 | 36.95348 | 126.85643 | 16860 ft | 391 kts | 326° |
| 2026-05-07 09:24 | 36.96977 | 126.84623 | 16262 ft | 381 kts | 326° |
| 2026-05-07 09:24 | 36.99278 | 126.83193 | 15760 ft | 358 kts | 325° |
| 2026-05-07 09:24 | 37.01447 | 126.81843 | 15156 ft | 340 kts | 325° |
| 2026-05-07 09:25 | 37.03535 | 126.80533 | 14363 ft | 332 kts | 325° |
| 2026-05-07 09:25 | 37.05556 | 126.79259 | 13591 ft | 326 kts | 325° |
| 2026-05-07 09:25 | 37.07527 | 126.78024 | 13152 ft | 307 kts | 325° |
| 2026-05-07 09:25 | 37.09399 | 126.76853 | 12599 ft | 295 kts | 325° |
| 2026-05-07 09:26 | 37.11227 | 126.75699 | 11812 ft | 293 kts | 325° |
| 2026-05-07 09:26 | 37.13043 | 126.74551 | 11072 ft | 290 kts | 326° |
| 2026-05-07 09:26 | 37.14823 | 126.73393 | 10338 ft | 285 kts | 322° |
| 2026-05-07 09:26 | 37.16291 | 126.71827 | 9617 ft | 271 kts | 302° |
| 2026-05-07 09:27 | 37.17276 | 126.69855 | 8868 ft | 265 kts | 294° |
| 2026-05-07 09:27 | 37.18121 | 126.67837 | 8064 ft | 265 kts | 296° |
| 2026-05-07 09:27 | 37.20674 | 126.64531 | 6610 ft | 267 kts | 321° |
| 2026-05-07 09:28 | 37.22182 | 126.63196 | 5948 ft | 263 kts | 323° |
| 2026-05-07 09:28 | 37.23677 | 126.61894 | 5253 ft | 260 kts | 323° |
| 2026-05-07 09:28 | 37.25151 | 126.60608 | 4608 ft | 258 kts | 324° |
| 2026-05-07 09:28 | 37.26648 | 126.59320 | 4013 ft | 263 kts | 324° |
| 2026-05-07 09:29 | 37.28128 | 126.58022 | 3675 ft | 252 kts | 323° |
| 2026-05-07 09:29 | 37.29507 | 126.56791 | 3455 ft | 233 kts | 323° |
| 2026-05-07 09:29 | 37.30782 | 126.55655 | 3249 ft | 217 kts | 323° |
| 2026-05-07 09:29 | 37.31975 | 126.54596 | 3003 ft | 205 kts | 323° |
| 2026-05-07 09:30 | 37.33116 | 126.53583 | 2733 ft | 202 kts | 323° |
| 2026-05-07 09:30 | 37.34249 | 126.52576 | 2452 ft | 192 kts | 323° |
| 2026-05-07 09:30 | 37.35310 | 126.51633 | 2190 ft | 180 kts | 323° |
| 2026-05-07 09:30 | 37.36277 | 126.50772 | 1944 ft | 166 kts | 323° |
| 2026-05-07 09:31 | 37.37194 | 126.49957 | 1744 ft | 153 kts | 323° |
| 2026-05-07 09:31 | 37.38018 | 126.49223 | 1551 ft | 140 kts | 323° |
| 2026-05-07 09:31 | 37.38793 | 126.48534 | 1362 ft | 134 kts | 322° |
| 2026-05-07 09:31 | 37.39555 | 126.47856 | 1180 ft | 134 kts | 322° |
| 2026-05-07 09:32 | 37.40316 | 126.47178 | 994 ft | 134 kts | 322° |
| 2026-05-07 09:32 | 37.41077 | 126.46502 | 806 ft | 133 kts | 322° |
| 2026-05-07 09:32 | 37.41843 | 126.45839 | 633 ft | 134 kts | 322° |
| 2026-05-07 09:32 | 37.42590 | 126.45176 | 453 ft | 133 kts | 321° |
| 2026-05-07 09:33 | 37.43341 | 126.44497 | 254 ft | 133 kts | 321° |
| 2026-05-07 09:33 | 37.44095 | 126.43827 | 94 ft | 133 kts | 322° |
| 2026-05-07 09:33 | 37.44806 | 126.43186 | 37 ft | 105 kts | 325° |
| 2026-05-07 09:33 | 37.45219 | 126.42820 | 37 ft | 28 kts | 324° |
| 2026-05-07 09:34 | 37.45375 | 126.42692 | 37 ft | 26 kts | 334° |
| 2026-05-07 09:34 | 37.45549 | 126.42636 | 37 ft | 25 kts | 353° |
| 2026-05-07 09:34 | 37.45715 | 126.42614 | 37 ft | 23 kts | 352° |
| 2026-05-07 09:34 | 37.45839 | 126.42534 | 37 ft | 20 kts | 324° |
| 2026-05-07 09:35 | 37.45950 | 126.42436 | 37 ft | 18 kts | 324° |
| 2026-05-07 09:35 | 37.46024 | 126.42375 | 37 ft | 9 kts | 342° |
| 2026-05-07 09:35 | 37.46078 | 126.42407 | 35 ft | 10 kts | 41° |
| 2026-05-07 09:35 | 37.46121 | 126.42482 | 37 ft | 13 kts | 55° |
| 2026-05-07 09:36 | 37.46185 | 126.42595 | 37 ft | 17 kts | 54° |
| 2026-05-07 09:36 | 37.46239 | 126.42704 | 37 ft | 10 kts | 79° |
| 2026-05-07 09:36 | 37.46207 | 126.42779 | 37 ft | 11 kts | 142° |
| 2026-05-07 09:36 | 37.46128 | 126.42851 | 37 ft | 18 kts | 145° |
| 2026-05-07 09:37 | 37.46003 | 126.42962 | 37 ft | 25 kts | 144° |
| 2026-05-07 09:37 | 37.45856 | 126.43093 | 37 ft | 27 kts | 145° |
| 2026-05-07 09:37 | 37.45707 | 126.43224 | 35 ft | 26 kts | 144° |
| 2026-05-07 09:37 | 37.45553 | 126.43362 | 37 ft | 28 kts | 144° |
| 2026-05-07 09:38 | 37.45391 | 126.43507 | 36 ft | 29 kts | 144° |
| 2026-05-07 09:38 | 37.45223 | 126.43656 | 36 ft | 30 kts | 144° |
| 2026-05-07 09:38 | 37.45058 | 126.43803 | 36 ft | 29 kts | 145° |
| 2026-05-07 09:38 | 37.44938 | 126.43910 | 36 ft | 16 kts | 143° |
| 2026-05-07 09:39 | 37.44932 | 126.44022 | 36 ft | 14 kts | 57° |
| 2026-05-07 09:39 | 37.44992 | 126.44130 | 36 ft | 16 kts | 55° |
| 2026-05-07 09:39 | 37.45023 | 126.44223 | 36 ft | 10 kts | 97° |
| 2026-05-07 09:39 | 37.44987 | 126.44310 | 36 ft | 12 kts | 126° |
| 2026-05-07 09:40 | 37.44933 | 126.44403 | 36 ft | 14 kts | 126° |
| 2026-05-07 09:40 | 37.44878 | 126.44499 | 36 ft | 13 kts | 126° |
| 2026-05-07 09:40 | 37.44850 | 126.44551 | 36 ft | 6 kts | 114° |
| 2026-05-07 09:40 | 37.44860 | 126.44591 | 36 ft | 5 kts | 45° |
| 2026-05-07 09:41 | 37.44896 | 126.44625 | 36 ft | 7 kts | 35° |
| 2026-05-07 09:41 | 37.44919 | 126.44645 | 36 ft | 0 kts | 35° |